Key West, FL (33045)

4:50 AM EST on February 10, 2016 (GMT -0500)
The Meadows | | Change Station
CLOSE
Current Station
Personal Weather Station
Location: Key West, FL
Elevation: 10 ft
Nearby Weather Stations

Elev 10 ft 24.56 °N, 81.79 °W | Updated 13 seconds ago

Overcast
Overcast
65.1 °F
Feels Like 65.1 °F
N
2.0
Wind Variable Wind from NW
Gusts 3.0 mph

Today
High -- | Low -- °F
--% Chance of Precip.
Yesterday
High -- | Low -- °F
Precip. -- in
Pressure 30.12 in
Visibility 10.0 miles
Clouds Mostly Cloudy 4800 ft
Overcast 6500 ft
Dew Point 55 °F
Humidity 70%
Rainfall 0.00 in
Snow Depth Not available.
7:04 AM 6:18 PM
Waxing Crescent, 4% visible
METAR KEYW 100853Z AUTO 33014G21KT 10SM BKN048 OVC065 19/14 A3012 RMK AO2 SLP200 60000 T01890139 55001
Pressure 30.12 in
Visibility 10.0 miles
Clouds Mostly Cloudy 4800 ft
Overcast 6500 ft
Dew Point 55 °F
Humidity 70%
Rainfall 0.00 in
Snow Depth Not available.
7:04 AM 6:18 PM
Waxing Crescent, 4% visible
METAR KEYW 100853Z AUTO 33014G21KT 10SM BKN048 OVC065 19/14 A3012 RMK AO2 SLP200 60000 T01890139 55001

10-Day Weather Forecast

Almanac

Astronomy

Feb. 10, 2016 Rise Set
Actual Time
Civil Twilight
Nautical Twilight
Astronomical Twilight
Moon
Length of Visible Light
Length of Day
Tomorrow will be .
, % of the Moon is Illuminated

Today's Extremes

State Highs State Lows

Community

WunderPhotos

Upload Photos

1,891,826 photos uploaded!

WunderBlog® & News

Nearby

Air Quality

  Air Quality AQ Index Pollutant
Not available.

Snow Depth

Station Depth Elevation

Earthquake Activity

City Distance Mag. Time & Date
Minimum magnitude displayed is 2.5.

Coastal Water Temperatures

Place Temperature

Stations

Nearby Weather Stations

Station Location Temp. Windchill Dew Point Humidity Wind Precip. Elev Updated Type
                   

Watches & Warnings

There are currently no watches in effect.